Time,TemperatureF,DewpointF,PressureIn,WindDirection,WindDirectionDegrees,WindSpeedMPH,WindSpeedGustMPH,Humidity,HourlyPrecipIn,Conditions,Clouds,dailyrainin,SoftwareType,DateUTC
2013-08-23 00:04:00,52.3,44.6,29.86,WSW,252,0.0,1.0,75,0.00,,,0.00,meteohub,2013-08-23 06:04:00,
2013-08-23 00:09:00,52.2,44.8,29.86,West,267,1.0,2.0,76,0.00,,,0.00,meteohub,2013-08-23 06:09:00,
2013-08-23 00:15:00,52.2,45.1,29.86,WSW,253,1.0,2.0,77,0.00,,,0.00,meteohub,2013-08-23 06:15:00,
2013-08-23 00:20:00,51.6,44.6,29.86,West,264,1.0,2.0,77,0.00,,,0.00,meteohub,2013-08-23 06:20:00,
2013-08-23 00:25:00,51.4,44.8,29.86,West,276,1.0,3.0,78,0.00,,,0.00,meteohub,2013-08-23 06:25:00,
2013-08-23 00:30:00,51.3,44.6,29.86,WSW,253,0.0,3.0,78,0.00,,,0.00,meteohub,2013-08-23 06:30:00,
2013-08-23 00:36:00,51.1,44.8,29.86,West,259,1.0,3.0,79,0.00,,,0.00,meteohub,2013-08-23 06:36:00,
2013-08-23 00:41:00,51.1,44.8,29.86,WSW,249,2.0,2.0,79,0.00,,,0.00,meteohub,2013-08-23 06:41:00,
2013-08-23 00:46:00,51.3,45.0,29.86,WSW,256,1.0,2.0,79,0.00,,,0.00,meteohub,2013-08-23 06:46:00,
2013-08-23 00:51:00,51.3,45.0,29.86,WSW,253,1.0,2.0,79,0.00,,,0.00,meteohub,2013-08-23 06:51:00,
2013-08-23 00:57:00,51.3,44.6,29.86,WSW,252,1.0,2.0,78,0.00,,,0.00,meteohub,2013-08-23 06:57:00,
2013-08-23 01:02:00,51.1,44.4,29.86,WSW,253,1.0,2.0,78,0.00,,,0.00,meteohub,2013-08-23 07:02:00,
2013-08-23 01:07:00,51.1,44.4,29.86,WSW,253,1.0,2.0,78,0.00,,,0.00,meteohub,2013-08-23 07:07:00,
2013-08-23 01:12:00,51.1,44.4,29.86,West,259,1.0,1.0,78,0.00,,,0.00,meteohub,2013-08-23 07:12:00,
2013-08-23 01:17:00,51.1,44.8,29.86,WSW,252,1.0,2.0,79,0.00,,,0.00,meteohub,2013-08-23 07:17:00,
2013-08-23 01:22:00,51.3,45.3,29.86,WSW,239,1.0,2.0,80,0.00,,,0.00,meteohub,2013-08-23 07:22:00,
2013-08-23 01:29:00,52.0,45.7,29.86,SW,215,0.0,3.0,79,0.00,,,0.00,meteohub,2013-08-23 07:29:00,
2013-08-23 01:32:00,52.0,45.3,29.86,SSE,159,1.0,3.0,78,0.00,,,0.00,meteohub,2013-08-23 07:32:00,
2013-08-23 01:37:00,52.0,45.3,29.86,West,270,1.0,3.0,78,0.00,,,0.00,meteohub,2013-08-23 07:37:00,
2013-08-23 01:42:00,52.2,45.5,29.86,West,267,1.0,3.0,78,0.00,,,0.00,meteohub,2013-08-23 07:42:00,
2013-08-23 01:47:00,51.6,45.0,29.86,WSW,243,0.0,2.0,78,0.00,,,0.00,meteohub,2013-08-23 07:47:00,
2013-08-23 01:52:00,51.3,44.6,29.86,West,264,1.0,2.0,78,0.00,,,0.00,meteohub,2013-08-23 07:52:00,
2013-08-23 01:57:00,51.3,44.6,29.86,WSW,248,1.0,2.0,78,0.00,,,0.00,meteohub,2013-08-23 07:57:00,
2013-08-23 02:02:00,50.9,44.6,29.86,WSW,248,0.0,2.0,79,0.00,,,0.00,meteohub,2013-08-23 08:02:00,
2013-08-23 02:07:00,50.5,44.2,29.86,West,262,1.0,2.0,79,0.00,,,0.00,meteohub,2013-08-23 08:07:00,
2013-08-23 02:12:00,50.4,44.1,29.86,West,260,1.0,2.0,79,0.00,,,0.00,meteohub,2013-08-23 08:12:00,
2013-08-23 02:17:00,50.2,44.2,29.86,West,260,0.0,1.0,80,0.00,,,0.00,meteohub,2013-08-23 08:17:00,
2013-08-23 02:22:00,49.8,43.9,29.86,West,260,0.0,1.0,80,0.00,,,0.00,meteohub,2013-08-23 08:22:00,
2013-08-23 02:27:00,49.6,44.1,29.86,West,276,0.0,1.0,81,0.00,,,0.00,meteohub,2013-08-23 08:27:00,
2013-08-23 02:32:00,49.5,44.6,29.86,NNW,333,1.0,1.0,83,0.00,,,0.00,meteohub,2013-08-23 08:32:00,
2013-08-23 02:37:00,49.6,45.0,29.86,NW,309,0.0,2.0,84,0.00,,,0.00,meteohub,2013-08-23 08:37:00,
2013-08-23 02:42:00,49.8,44.8,29.86,WNW,284,0.0,2.0,83,0.00,,,0.00,meteohub,2013-08-23 08:42:00,
2013-08-23 02:47:00,49.8,44.6,29.86,WNW,284,0.0,2.0,82,0.00,,,0.00,meteohub,2013-08-23 08:47:00,
2013-08-23 02:52:00,49.6,44.4,29.86,WNW,283,0.0,1.0,82,0.00,,,0.00,meteohub,2013-08-23 08:52:00,
2013-08-23 02:57:00,49.6,44.4,29.86,West,267,1.0,1.0,82,0.00,,,0.00,meteohub,2013-08-23 08:57:00,
2013-08-23 03:02:00,49.8,44.6,29.86,West,276,2.0,3.0,82,0.00,,,0.00,meteohub,2013-08-23 09:02:00,
2013-08-23 03:07:00,49.8,44.6,29.86,North,354,0.0,3.0,82,0.00,,,0.00,meteohub,2013-08-23 09:07:00,
2013-08-23 03:12:00,49.6,44.8,29.86,WNW,300,0.0,2.0,83,0.00,,,0.00,meteohub,2013-08-23 09:12:00,
2013-08-23 03:17:00,49.6,44.8,29.86,WNW,300,0.0,2.0,83,0.00,,,0.00,meteohub,2013-08-23 09:17:00,
2013-08-23 03:22:00,49.6,44.8,29.86,WNW,300,0.0,1.0,83,0.00,,,0.00,meteohub,2013-08-23 09:22:00,
2013-08-23 03:27:00,49.8,44.8,29.86,WNW,300,0.0,1.0,83,0.00,,,0.00,meteohub,2013-08-23 09:27:00,
2013-08-23 03:32:00,49.8,44.8,29.86,WNW,300,0.0,1.0,83,0.00,,,0.00,meteohub,2013-08-23 09:32:00,
2013-08-23 03:37:00,49.8,44.8,29.86,WNW,300,0.0,1.0,83,0.00,,,0.00,meteohub,2013-08-23 09:37:00,
2013-08-23 03:42:00,49.8,45.1,29.86,WNW,300,0.0,1.0,84,0.00,,,0.00,meteohub,2013-08-23 09:42:00,
2013-08-23 03:47:00,49.8,45.1,29.86,WNW,300,1.0,0.0,84,0.00,,,0.00,meteohub,2013-08-23 09:47:00,
2013-08-23 03:52:00,49.8,45.1,29.86,WNW,293,0.0,1.0,84,0.00,,,0.00,meteohub,2013-08-23 09:52:00,
2013-08-23 03:57:00,50.0,45.0,29.86,WNW,293,0.0,1.0,83,0.00,,,0.00,meteohub,2013-08-23 09:57:00,
2013-08-23 04:02:00,49.8,44.8,29.86,SSE,159,1.0,1.0,83,0.00,,,0.00,meteohub,2013-08-23 10:02:00,
2013-08-23 04:07:00,49.5,44.8,29.86,South,170,0.0,2.0,84,0.00,,,0.00,meteohub,2013-08-23 10:07:00,
2013-08-23 04:12:00,49.5,44.8,29.86,South,173,0.0,2.0,84,0.00,,,0.00,meteohub,2013-08-23 10:12:00,
2013-08-23 04:17:00,49.5,44.8,29.86,WSW,256,1.0,2.0,84,0.00,,,0.00,meteohub,2013-08-23 10:17:00,
2013-08-23 04:22:00,49.3,44.6,29.86,West,271,0.0,2.0,84,0.00,,,0.00,meteohub,2013-08-23 10:22:00,
2013-08-23 04:27:00,48.9,44.2,29.86,West,271,0.0,2.0,84,0.00,,,0.00,meteohub,2013-08-23 10:27:00,
2013-08-23 04:32:00,48.7,44.4,29.86,West,271,0.0,2.0,85,0.00,,,0.00,meteohub,2013-08-23 10:32:00,
2013-08-23 04:37:00,48.7,44.4,29.86,West,262,0.0,1.0,85,0.00,,,0.00,meteohub,2013-08-23 10:37:00,
2013-08-23 04:42:00,48.7,44.4,29.85,WSW,257,1.0,1.0,85,0.00,,,0.00,meteohub,2013-08-23 10:42:00,
2013-08-23 04:47:00,48.9,44.6,29.85,WSW,252,0.0,1.0,85,0.00,,,0.00,meteohub,2013-08-23 10:47:00,
2013-08-23 04:52:00,48.9,44.6,29.85,West,269,1.0,1.0,85,0.00,,,0.00,meteohub,2013-08-23 10:52:00,
2013-08-23 04:57:00,49.1,44.8,29.84,West,269,0.0,1.0,85,0.00,,,0.00,meteohub,2013-08-23 10:57:00,
2013-08-23 05:02:00,49.3,45.0,29.85,South,172,1.0,1.0,85,0.00,,,0.00,meteohub,2013-08-23 11:02:00,
2013-08-23 05:07:00,49.3,45.0,29.84,South,170,1.0,2.0,85,0.00,,,0.00,meteohub,2013-08-23 11:07:00,
2013-08-23 05:12:00,49.5,45.1,29.84,SE,146,1.0,2.0,85,0.00,,,0.00,meteohub,2013-08-23 11:12:00,
2013-08-23 05:18:00,49.3,45.0,29.84,WNW,300,2.0,2.0,85,0.00,,,0.00,meteohub,2013-08-23 11:18:00,
2013-08-23 05:23:00,49.5,45.1,29.84,WSW,246,0.0,2.0,85,0.00,,,0.00,meteohub,2013-08-23 11:23:00,
2013-08-23 05:28:00,49.6,45.0,29.84,WSW,245,0.0,2.0,84,0.00,,,0.00,meteohub,2013-08-23 11:28:00,
2013-08-23 05:33:00,49.3,45.0,29.83,WSW,248,0.0,2.0,85,0.00,,,0.00,meteohub,2013-08-23 11:33:00,
2013-08-23 05:39:00,48.9,44.6,29.83,WSW,255,1.0,1.0,85,0.00,,,0.00,meteohub,2013-08-23 11:39:00,
2013-08-23 05:44:00,48.9,44.6,29.83,WSW,243,1.0,1.0,85,0.00,,,0.00,meteohub,2013-08-23 11:44:00,
2013-08-23 05:49:00,48.7,44.8,29.83,WSW,243,0.0,2.0,86,0.00,,,0.00,meteohub,2013-08-23 11:49:00,
2013-08-23 05:54:00,48.6,44.6,29.83,ENE,59,1.0,2.0,86,0.00,,,0.00,meteohub,2013-08-23 11:54:00,
2013-08-23 05:59:00,48.2,44.2,29.84,West,274,2.0,2.0,86,0.00,,,0.00,meteohub,2013-08-23 11:59:00,
2013-08-23 06:05:00,48.0,44.4,29.83,West,262,1.0,2.0,87,0.00,,,0.00,meteohub,2013-08-23 12:05:00,
2013-08-23 06:10:00,47.7,44.1,29.84,West,274,1.0,2.0,87,0.00,,,0.00,meteohub,2013-08-23 12:10:00,
2013-08-23 06:15:00,47.5,44.1,29.84,West,276,0.0,2.0,88,0.00,,,0.00,meteohub,2013-08-23 12:15:00,
2013-08-23 06:20:00,47.1,43.5,29.84,West,276,0.0,2.0,87,0.00,,,0.00,meteohub,2013-08-23 12:20:00,
2013-08-23 06:26:00,46.8,43.3,29.84,West,276,1.0,1.0,88,0.00,,,0.00,meteohub,2013-08-23 12:26:00,
2013-08-23 06:31:00,46.2,43.2,29.85,West,276,0.0,1.0,89,0.00,,,0.00,meteohub,2013-08-23 12:31:00,
2013-08-23 06:36:00,46.0,43.3,29.85,West,277,1.0,2.0,90,0.00,,,0.00,meteohub,2013-08-23 12:36:00,
2013-08-23 06:41:00,45.9,43.2,29.85,West,263,1.0,3.0,90,0.00,,,0.00,meteohub,2013-08-23 12:41:00,
2013-08-23 06:47:00,45.7,43.0,29.85,West,263,2.0,3.0,90,0.00,,,0.00,meteohub,2013-08-23 12:47:00,
2013-08-23 06:52:00,45.5,42.8,29.86,West,274,1.0,2.0,90,0.00,,,0.00,meteohub,2013-08-23 12:52:00,
2013-08-23 06:57:00,45.3,42.6,29.86,West,277,1.0,2.0,90,0.00,,,0.00,meteohub,2013-08-23 12:57:00,
2013-08-23 07:02:00,45.5,43.0,29.86,West,277,1.0,2.0,91,0.00,,,0.00,meteohub,2013-08-23 13:02:00,
2013-08-23 07:07:00,45.3,42.6,29.86,WSW,255,1.0,2.0,90,0.00,,,0.00,meteohub,2013-08-23 13:07:00,
2013-08-23 07:12:00,45.5,43.0,29.86,WSW,253,0.0,2.0,91,0.00,,,0.00,meteohub,2013-08-23 13:12:00,
2013-08-23 07:17:00,45.7,43.2,29.86,WSW,253,0.0,2.0,91,0.00,,,0.00,meteohub,2013-08-23 13:17:00,
2013-08-23 07:22:00,45.9,43.7,29.86,SSW,207,0.0,1.0,92,0.00,,,0.00,meteohub,2013-08-23 13:22:00,
2013-08-23 07:27:00,46.4,44.2,29.86,WNW,290,2.0,2.0,92,0.00,,,0.00,meteohub,2013-08-23 13:27:00,
2013-08-23 07:32:00,47.8,45.3,29.86,NW,326,0.0,3.0,91,0.00,,,0.00,meteohub,2013-08-23 13:32:00,
2013-08-23 07:37:00,49.3,46.2,29.86,ESE,113,1.0,3.0,89,0.00,,,0.00,meteohub,2013-08-23 13:37:00,
2013-08-23 07:42:00,50.5,46.2,29.86,East,79,1.0,3.0,85,0.00,,,0.00,meteohub,2013-08-23 13:42:00,
2013-08-23 07:47:00,50.9,45.7,29.86,ENE,67,0.0,2.0,82,0.00,,,0.00,meteohub,2013-08-23 13:47:00,
2013-08-23 07:52:00,51.4,45.9,29.86,ENE,66,1.0,2.0,81,0.00,,,0.00,meteohub,2013-08-23 13:52:00,
2013-08-23 07:57:00,51.6,46.0,29.86,ENE,63,0.0,2.0,81,0.00,,,0.00,meteohub,2013-08-23 13:57:00,
2013-08-23 08:02:00,52.3,46.4,29.85,NE,37,0.0,2.0,80,0.00,,,0.00,meteohub,2013-08-23 14:02:00,
2013-08-23 08:07:00,53.1,46.8,29.85,NE,46,2.0,2.0,79,0.00,,,0.00,meteohub,2013-08-23 14:07:00,
2013-08-23 08:12:00,53.8,46.8,29.86,NE,45,0.0,2.0,77,0.00,,,0.00,meteohub,2013-08-23 14:12:00,
2013-08-23 08:17:00,54.7,46.9,29.86,ESE,110,1.0,2.0,75,0.00,,,0.00,meteohub,2013-08-23 14:17:00,
2013-08-23 08:22:00,55.6,47.1,29.85,ENE,70,3.0,3.0,73,0.00,,,0.00,meteohub,2013-08-23 14:22:00,
2013-08-23 08:27:00,55.4,47.3,29.85,NE,44,2.0,3.0,74,0.00,,,0.00,meteohub,2013-08-23 14:27:00,
2013-08-23 08:32:00,55.2,46.4,29.85,NNE,30,0.0,3.0,72,0.00,,,0.00,meteohub,2013-08-23 14:32:00,
2013-08-23 08:37:00,55.8,47.3,29.85,ENE,76,1.0,3.0,73,0.00,,,0.00,meteohub,2013-08-23 14:37:00,
2013-08-23 08:42:00,56.3,47.5,29.85,ENE,65,3.0,3.0,72,0.00,,,0.00,meteohub,2013-08-23 14:42:00,
2013-08-23 08:47:00,56.8,47.1,29.85,North,354,1.0,3.0,70,0.00,,,0.00,meteohub,2013-08-23 14:47:00,
2013-08-23 08:53:00,57.0,47.3,29.85,ENE,70,4.0,4.0,70,0.00,,,0.00,meteohub,2013-08-23 14:53:00,
2013-08-23 08:58:00,57.6,47.5,29.84,ENE,63,2.0,4.0,69,0.00,,,0.00,meteohub,2013-08-23 14:58:00,
2013-08-23 09:03:00,58.1,46.4,29.84,NE,39,3.0,4.0,65,0.00,,,0.00,meteohub,2013-08-23 15:03:00,
2013-08-23 09:08:00,58.3,46.6,29.84,NNE,16,3.0,5.0,65,0.00,,,0.00,meteohub,2013-08-23 15:08:00,
2013-08-23 09:13:00,58.6,47.7,29.84,NNE,32,5.0,5.0,67,0.00,,,0.00,meteohub,2013-08-23 15:13:00,
2013-08-23 09:19:00,59.2,47.5,29.83,NE,49,3.0,6.0,65,0.00,,,0.00,meteohub,2013-08-23 15:19:00,
2013-08-23 09:24:00,59.5,46.9,29.83,NNE,28,5.0,6.0,63,0.00,,,0.00,meteohub,2013-08-23 15:24:00,
2013-08-23 09:29:00,60.1,47.5,29.83,NNW,348,4.0,6.0,63,0.00,,,0.00,meteohub,2013-08-23 15:29:00,
2013-08-23 09:34:00,60.3,46.4,29.83,NNE,33,5.0,6.0,60,0.00,,,0.00,meteohub,2013-08-23 15:34:00,
2013-08-23 09:40:00,61.0,46.6,29.83,ENE,63,4.0,6.0,59,0.00,,,0.00,meteohub,2013-08-23 15:40:00,
2013-08-23 09:45:00,61.5,45.7,29.83,NNE,32,5.0,7.0,56,0.00,,,0.00,meteohub,2013-08-23 15:45:00,
2013-08-23 09:50:00,61.9,45.1,29.83,NE,44,3.0,8.0,54,0.00,,,0.00,meteohub,2013-08-23 15:50:00,
2013-08-23 09:55:00,63.0,47.5,29.82,ENE,77,5.0,10.0,57,0.00,,,0.00,meteohub,2013-08-23 15:55:00,
2013-08-23 10:00:00,63.3,48.4,29.82,NE,49,6.0,11.0,58,0.00,,,0.00,meteohub,2013-08-23 16:00:00,
2013-08-23 10:06:00,64.2,47.7,29.82,NNE,27,6.0,11.0,55,0.00,,,0.00,meteohub,2013-08-23 16:06:00,
2013-08-23 10:11:00,64.9,47.5,29.82,NNE,22,6.0,11.0,53,0.00,,,0.00,meteohub,2013-08-23 16:11:00,
2013-08-23 10:16:00,65.7,49.5,29.82,NE,39,10.0,10.0,56,0.00,,,0.00,meteohub,2013-08-23 16:16:00,
2013-08-23 10:21:00,65.8,47.7,29.82,NNE,33,10.0,10.0,52,0.00,,,0.00,meteohub,2013-08-23 16:21:00,
2013-08-23 10:27:00,66.4,47.7,29.81,NE,34,8.0,11.0,51,0.00,,,0.00,meteohub,2013-08-23 16:27:00,
2013-08-23 10:32:00,66.7,46.9,29.81,NE,56,8.0,11.0,49,0.00,,,0.00,meteohub,2013-08-23 16:32:00,
2013-08-23 10:37:00,66.4,47.1,29.81,ENE,57,4.0,11.0,50,0.00,,,0.00,meteohub,2013-08-23 16:37:00,
2013-08-23 10:42:00,66.9,48.2,29.81,NNE,32,9.0,10.0,51,0.00,,,0.00,meteohub,2013-08-23 16:42:00,
2013-08-23 10:47:00,67.6,48.4,29.80,ENE,63,10.0,12.0,50,0.00,,,0.00,meteohub,2013-08-23 16:47:00,
2013-08-23 10:52:00,68.5,48.6,29.80,ENE,61,8.0,13.0,49,0.00,,,0.00,meteohub,2013-08-23 16:52:00,
2013-08-23 10:57:00,69.4,47.8,29.80,ENE,60,9.0,17.0,46,0.00,,,0.00,meteohub,2013-08-23 16:57:00,
2013-08-23 11:02:00,69.6,47.8,29.79,North,1,9.0,17.0,46,0.00,,,0.00,meteohub,2013-08-23 17:02:00,
2013-08-23 11:07:00,70.2,47.3,29.79,NNE,20,10.0,13.0,44,0.00,,,0.00,meteohub,2013-08-23 17:07:00,
2013-08-23 11:12:00,70.2,47.3,29.79,North,358,9.0,16.0,44,0.00,,,0.00,meteohub,2013-08-23 17:12:00,
2013-08-23 11:17:00,71.1,48.0,29.79,NNE,26,8.0,16.0,44,0.00,,,0.00,meteohub,2013-08-23 17:17:00,
2013-08-23 11:22:00,71.1,47.5,29.79,ENE,58,10.0,16.0,43,0.00,,,0.00,meteohub,2013-08-23 17:22:00,
2013-08-23 11:27:00,71.4,47.1,29.78,NE,42,8.0,13.0,42,0.00,,,0.00,meteohub,2013-08-23 17:27:00,
2013-08-23 11:32:00,71.6,46.6,29.78,NNE,19,8.0,14.0,41,0.00,,,0.00,meteohub,2013-08-23 17:32:00,
2013-08-23 11:37:00,72.0,47.7,29.78,NE,49,6.0,14.0,42,0.00,,,0.00,meteohub,2013-08-23 17:37:00,
2013-08-23 11:42:00,72.0,46.9,29.78,ENE,58,11.0,14.0,41,0.00,,,0.00,meteohub,2013-08-23 17:42:00,
2013-08-23 11:47:00,72.3,46.6,29.78,NNE,18,8.0,13.0,40,0.00,,,0.00,meteohub,2013-08-23 17:47:00,
2013-08-23 11:52:00,73.6,47.1,29.77,ENE,61,13.0,13.0,39,0.00,,,0.00,meteohub,2013-08-23 17:52:00,
2013-08-23 11:57:00,74.5,45.9,29.77,NNW,345,6.0,15.0,36,0.00,,,0.00,meteohub,2013-08-23 17:57:00,
2013-08-23 12:02:00,74.1,44.8,29.76,NE,41,7.0,15.0,35,0.00,,,0.00,meteohub,2013-08-23 18:02:00,
2013-08-23 12:07:00,74.7,45.9,29.76,ENE,58,8.0,15.0,36,0.00,,,0.00,meteohub,2013-08-23 18:07:00,
2013-08-23 12:12:00,74.8,43.9,29.75,North,356,7.0,13.0,33,0.00,,,0.00,meteohub,2013-08-23 18:12:00,
2013-08-23 12:17:00,75.0,43.9,29.75,NNW,335,0.0,12.0,33,0.00,,,0.00,meteohub,2013-08-23 18:17:00,
2013-08-23 12:22:00,75.4,44.2,29.75,North,356,4.0,12.0,33,0.00,,,0.00,meteohub,2013-08-23 18:22:00,
2013-08-23 12:27:00,75.9,42.3,29.75,NW,311,9.0,12.0,30,0.00,,,0.00,meteohub,2013-08-23 18:27:00,
2013-08-23 12:32:00,75.7,42.1,29.75,West,262,6.0,10.0,30,0.00,,,0.00,meteohub,2013-08-23 18:32:00,
2013-08-23 12:37:00,76.3,44.2,29.75,NW,314,4.0,11.0,32,0.00,,,0.00,meteohub,2013-08-23 18:37:00,
2013-08-23 12:42:00,75.9,43.2,29.74,WNW,302,1.0,11.0,31,0.00,,,0.00,meteohub,2013-08-23 18:42:00,
2013-08-23 12:47:00,76.1,42.4,29.74,NE,39,5.0,11.0,30,0.00,,,0.00,meteohub,2013-08-23 18:47:00,
2013-08-23 12:52:00,75.6,41.9,29.74,NNE,16,5.0,8.0,30,0.00,,,0.00,meteohub,2013-08-23 18:52:00,
2013-08-23 12:57:00,76.3,42.6,29.74,North,354,0.0,8.0,30,0.00,,,0.00,meteohub,2013-08-23 18:57:00,
2013-08-23 13:02:00,76.8,40.3,29.74,ENE,69,4.0,8.0,27,0.00,,,0.00,meteohub,2013-08-23 19:02:00,
2013-08-23 13:07:00,77.4,40.8,29.73,East,92,5.0,10.0,27,0.00,,,0.00,meteohub,2013-08-23 19:07:00,
2013-08-23 13:12:00,77.7,45.5,29.73,NE,41,4.0,10.0,32,0.00,,,0.00,meteohub,2013-08-23 19:12:00,
2013-08-23 13:17:00,76.8,45.5,29.73,NE,39,11.0,16.0,33,0.00,,,0.00,meteohub,2013-08-23 19:17:00,
2013-08-23 13:22:00,75.7,45.3,29.73,NNE,25,13.0,16.0,34,0.00,,,0.00,meteohub,2013-08-23 19:22:00,
2013-08-23 13:27:00,74.7,44.4,29.72,East,88,7.0,16.0,34,0.00,,,0.00,meteohub,2013-08-23 19:27:00,
2013-08-23 13:32:00,73.9,44.6,29.72,NE,53,4.0,14.0,35,0.00,,,0.00,meteohub,2013-08-23 19:32:00,
2013-08-23 13:37:00,74.5,45.9,29.72,NE,50,7.0,13.0,36,0.00,,,0.00,meteohub,2013-08-23 19:37:00,
2013-08-23 13:42:00,74.7,44.4,29.72,North,9,9.0,12.0,34,0.00,,,0.00,meteohub,2013-08-23 19:42:00,
2013-08-23 13:47:00,74.8,44.6,29.71,NNE,32,9.0,12.0,34,0.00,,,0.00,meteohub,2013-08-23 19:47:00,
2013-08-23 13:52:00,73.8,43.7,29.71,NNE,20,9.0,12.0,34,0.00,,,0.00,meteohub,2013-08-23 19:52:00,
2013-08-23 13:57:00,73.2,43.9,29.71,NNW,346,7.0,15.0,35,0.00,,,0.00,meteohub,2013-08-23 19:57:00,
2013-08-23 14:02:00,73.2,44.6,29.71,NNW,339,8.0,15.0,36,0.00,,,0.00,meteohub,2013-08-23 20:02:00,
2013-08-23 14:07:00,73.0,43.7,29.71,NNW,345,11.0,15.0,35,0.00,,,0.00,meteohub,2013-08-23 20:07:00,
2013-08-23 14:12:00,72.3,43.9,29.71,NE,37,9.0,15.0,36,0.00,,,0.00,meteohub,2013-08-23 20:12:00,
2013-08-23 14:17:00,72.9,45.7,29.71,NNW,335,6.0,15.0,38,0.00,,,0.00,meteohub,2013-08-23 20:17:00,
2013-08-23 14:22:00,73.0,45.1,29.72,North,8,8.0,15.0,37,0.00,,,0.00,meteohub,2013-08-23 20:22:00,
2013-08-23 14:27:00,72.9,43.5,29.72,NW,312,9.0,12.0,35,0.00,,,0.00,meteohub,2013-08-23 20:27:00,
2013-08-23 14:32:00,73.0,45.1,29.71,NW,310,5.0,12.0,37,0.00,,,0.00,meteohub,2013-08-23 20:32:00,
2013-08-23 14:37:00,73.0,45.1,29.71,WNW,302,8.0,13.0,37,0.00,,,0.00,meteohub,2013-08-23 20:37:00,
2013-08-23 14:42:00,72.1,45.1,29.71,NW,312,8.0,13.0,38,0.00,,,0.00,meteohub,2013-08-23 20:42:00,
2013-08-23 14:47:00,71.2,45.0,29.70,WNW,295,5.0,13.0,39,0.00,,,0.00,meteohub,2013-08-23 20:47:00,
2013-08-23 14:52:00,71.2,45.7,29.71,NW,316,7.0,12.0,40,0.00,,,0.00,meteohub,2013-08-23 20:52:00,
2013-08-23 14:57:00,71.6,44.6,29.70,NW,325,12.0,15.0,38,0.00,,,0.00,meteohub,2013-08-23 20:57:00,
2013-08-23 15:02:00,72.1,45.1,29.70,NW,308,6.0,15.0,38,0.00,,,0.00,meteohub,2013-08-23 21:02:00,
2013-08-23 15:07:00,72.7,44.2,29.70,North,352,4.0,15.0,36,0.00,,,0.00,meteohub,2013-08-23 21:07:00,
2013-08-23 15:12:00,73.6,45.7,29.70,WNW,285,8.0,15.0,37,0.00,,,0.00,meteohub,2013-08-23 21:12:00,
2013-08-23 15:17:00,73.8,45.9,29.69,NNW,330,6.0,14.0,37,0.00,,,0.00,meteohub,2013-08-23 21:17:00,
2013-08-23 15:22:00,74.5,45.0,29.70,NNE,32,10.0,13.0,35,0.00,,,0.00,meteohub,2013-08-23 21:22:00,
2013-08-23 15:27:00,75.0,45.5,29.70,NE,36,10.0,15.0,35,0.00,,,0.00,meteohub,2013-08-23 21:27:00,
2013-08-23 15:32:00,74.7,45.1,29.70,NE,34,9.0,15.0,35,0.00,,,0.00,meteohub,2013-08-23 21:32:00,
2013-08-23 15:37:00,73.0,44.4,29.70,North,356,5.0,15.0,36,0.00,,,0.00,meteohub,2013-08-23 21:37:00,
2013-08-23 15:42:00,73.0,45.1,29.70,NNE,27,13.0,16.0,37,0.00,,,0.00,meteohub,2013-08-23 21:42:00,
2013-08-23 15:47:00,73.0,44.4,29.70,NNE,27,10.0,19.0,36,0.00,,,0.00,meteohub,2013-08-23 21:47:00,
2013-08-23 15:52:00,73.0,44.4,29.69,NW,308,8.0,19.0,36,0.00,,,0.00,meteohub,2013-08-23 21:52:00,
2013-08-23 15:57:00,73.2,44.6,29.70,North,349,11.0,19.0,36,0.00,,,0.00,meteohub,2013-08-23 21:57:00,
2013-08-23 16:02:00,73.4,44.1,29.70,NNE,16,13.0,16.0,35,0.00,,,0.00,meteohub,2013-08-23 22:02:00,
2013-08-23 16:07:00,73.2,45.3,29.69,North,358,10.0,16.0,37,0.00,,,0.00,meteohub,2013-08-23 22:07:00,
2013-08-23 16:12:00,73.2,44.6,29.69,North,4,7.0,16.0,36,0.00,,,0.00,meteohub,2013-08-23 22:12:00,
2013-08-23 16:17:00,72.9,44.4,29.69,North,354,7.0,15.0,36,0.00,,,0.00,meteohub,2013-08-23 22:17:00,
2013-08-23 16:22:00,73.2,44.6,29.69,North,6,11.0,14.0,36,0.00,,,0.00,meteohub,2013-08-23 22:22:00,
2013-08-23 16:27:00,73.6,44.2,29.69,NNW,335,7.0,14.0,35,0.00,,,0.00,meteohub,2013-08-23 22:27:00,
2013-08-23 16:32:00,73.6,43.5,29.69,NNW,347,13.0,13.0,34,0.00,,,0.00,meteohub,2013-08-23 22:32:00,
2013-08-23 16:38:00,73.4,44.1,29.69,North,6,12.0,14.0,35,0.00,,,0.00,meteohub,2013-08-23 22:38:00,
2013-08-23 16:43:00,73.9,43.9,29.68,NNE,25,6.0,16.0,34,0.00,,,0.00,meteohub,2013-08-23 22:43:00,
2013-08-23 16:48:00,73.9,43.9,29.68,NNW,331,9.0,16.0,34,0.00,,,0.00,meteohub,2013-08-23 22:48:00,
2013-08-23 16:53:00,73.6,42.6,29.68,North,359,7.0,14.0,33,0.00,,,0.00,meteohub,2013-08-23 22:53:00,
2013-08-23 16:59:00,73.8,45.1,29.68,NW,325,12.0,14.0,36,0.00,,,0.00,meteohub,2013-08-23 22:59:00,
2013-08-23 17:04:00,72.0,45.7,29.68,NNW,343,8.0,20.0,39,0.00,,,0.00,meteohub,2013-08-23 23:04:00,
2013-08-23 17:09:00,70.5,45.0,29.69,NW,308,5.0,20.0,40,0.00,,,0.00,meteohub,2013-08-23 23:09:00,
2013-08-23 17:14:00,69.3,45.1,29.69,NW,321,5.0,20.0,42,0.00,,,0.00,meteohub,2013-08-23 23:14:00,
2013-08-23 17:20:00,68.5,44.6,29.69,NW,323,6.0,15.0,42,0.00,,,0.00,meteohub,2013-08-23 23:20:00,
2013-08-23 17:25:00,68.2,44.8,29.69,NW,315,4.0,9.0,43,0.00,,,0.00,meteohub,2013-08-23 23:25:00,
2013-08-23 17:30:00,67.6,45.0,29.69,WNW,300,7.0,8.0,44,0.00,,,0.00,meteohub,2013-08-23 23:30:00,
2013-08-23 17:35:00,66.9,45.0,29.69,NW,312,4.0,11.0,45,0.00,,,0.00,meteohub,2013-08-23 23:35:00,
2013-08-23 17:41:00,66.6,45.1,29.69,WNW,290,5.0,11.0,46,0.00,,,0.00,meteohub,2013-08-23 23:41:00,
2013-08-23 17:46:00,67.5,44.8,29.69,NW,306,5.0,12.0,44,0.00,,,0.00,meteohub,2013-08-23 23:46:00,
2013-08-23 17:51:00,68.4,45.7,29.69,NW,312,6.0,12.0,44,0.00,,,0.00,meteohub,2013-08-23 23:51:00,
2013-08-23 17:56:00,68.2,44.8,29.69,NW,309,6.0,12.0,43,0.00,,,0.00,meteohub,2013-08-23 23:56:00,
2013-08-23 18:02:00,67.6,45.0,29.69,NW,304,4.0,11.0,44,0.00,,,0.00,meteohub,2013-08-24 00:02:00,
2013-08-23 18:07:00,66.9,45.0,29.69,WNW,302,5.0,11.0,45,0.00,,,0.00,meteohub,2013-08-24 00:07:00,
2013-08-23 18:12:00,66.6,44.6,29.69,West,277,3.0,10.0,45,0.00,,,0.00,meteohub,2013-08-24 00:12:00,
2013-08-23 18:17:00,66.0,44.6,29.69,WNW,293,4.0,9.0,46,0.00,,,0.00,meteohub,2013-08-24 00:17:00,
2013-08-23 18:22:00,65.7,44.2,29.69,WNW,300,3.0,8.0,46,0.00,,,0.00,meteohub,2013-08-24 00:22:00,
2013-08-23 18:27:00,65.5,44.2,29.69,NW,321,0.0,7.0,46,0.00,,,0.00,meteohub,2013-08-24 00:27:00,
2013-08-23 18:33:00,65.3,44.6,29.69,WNW,288,3.0,6.0,47,0.00,,,0.00,meteohub,2013-08-24 00:33:00,
2013-08-23 18:38:00,65.3,44.1,29.69,West,280,1.0,6.0,46,0.00,,,0.00,meteohub,2013-08-24 00:38:00,
2013-08-23 18:43:00,65.1,44.4,29.70,ENE,66,3.0,6.0,47,0.00,,,0.00,meteohub,2013-08-24 00:43:00,
2013-08-23 18:48:00,64.9,44.2,29.70,SSW,198,1.0,6.0,47,0.00,,,0.00,meteohub,2013-08-24 00:48:00,
2013-08-23 18:54:00,64.2,44.6,29.70,WNW,300,1.0,6.0,49,0.00,,,0.00,meteohub,2013-08-24 00:54:00,
2013-08-23 18:59:00,64.0,44.4,29.70,WNW,300,0.0,3.0,49,0.00,,,0.00,meteohub,2013-08-24 00:59:00,
2013-08-23 19:04:00,63.3,44.4,29.70,WSW,246,1.0,3.0,50,0.00,,,0.00,meteohub,2013-08-24 01:04:00,
2013-08-23 19:09:00,63.0,45.1,29.70,WSW,246,0.0,3.0,52,0.00,,,0.00,meteohub,2013-08-24 01:09:00,
2013-08-23 19:15:00,62.4,45.1,29.70,WNW,288,1.0,1.0,53,0.00,,,0.00,meteohub,2013-08-24 01:15:00,
2013-08-23 19:20:00,62.2,45.0,29.70,SW,217,1.0,3.0,53,0.00,,,0.00,meteohub,2013-08-24 01:20:00,
2013-08-23 19:25:00,62.1,44.8,29.70,SW,221,2.0,3.0,53,0.00,,,0.00,meteohub,2013-08-24 01:25:00,
2013-08-23 19:30:00,61.9,45.1,29.70,SE,129,1.0,3.0,54,0.00,,,0.00,meteohub,2013-08-24 01:30:00,
2013-08-23 19:36:00,61.3,44.6,29.70,WSW,256,2.0,3.0,54,0.00,,,0.00,meteohub,2013-08-24 01:36:00,
2013-08-23 19:41:00,60.4,44.6,29.70,West,264,2.0,3.0,56,0.00,,,0.00,meteohub,2013-08-24 01:41:00,
2013-08-23 19:46:00,60.3,44.4,29.70,WSW,255,2.0,3.0,56,0.00,,,0.00,meteohub,2013-08-24 01:46:00,
2013-08-23 19:51:00,59.7,44.1,29.70,WSW,248,3.0,3.0,56,0.00,,,0.00,meteohub,2013-08-24 01:51:00,
2013-08-23 19:57:00,59.5,44.2,29.70,WSW,257,1.0,4.0,57,0.00,,,0.00,meteohub,2013-08-24 01:57:00,
2013-08-23 20:02:00,59.0,44.2,29.70,West,259,1.0,4.0,58,0.00,,,0.00,meteohub,2013-08-24 02:02:00,
2013-08-23 20:07:00,58.3,44.4,29.71,West,271,1.0,4.0,60,0.00,,,0.00,meteohub,2013-08-24 02:07:00,
2013-08-23 20:12:00,57.7,43.9,29.71,West,264,1.0,2.0,60,0.00,,,0.00,meteohub,2013-08-24 02:12:00,
2013-08-23 20:17:00,57.6,43.7,29.71,WSW,250,2.0,2.0,60,0.00,,,0.00,meteohub,2013-08-24 02:17:00,
2013-08-23 20:22:00,57.4,44.1,29.71,WSW,250,1.0,2.0,61,0.00,,,0.00,meteohub,2013-08-24 02:22:00,
2013-08-23 20:27:00,57.0,43.7,29.71,WSW,250,1.0,2.0,61,0.00,,,0.00,meteohub,2013-08-24 02:27:00,
2013-08-23 20:32:00,56.8,43.9,29.72,WSW,256,1.0,2.0,62,0.00,,,0.00,meteohub,2013-08-24 02:32:00,
2013-08-23 20:38:00,56.7,43.7,29.72,West,262,0.0,3.0,62,0.00,,,0.00,meteohub,2013-08-24 02:38:00,
2013-08-23 20:43:00,56.5,44.1,29.73,West,264,1.0,3.0,63,0.00,,,0.00,meteohub,2013-08-24 02:43:00,
2013-08-23 20:48:00,56.5,44.1,29.73,West,264,1.0,2.0,63,0.00,,,0.00,meteohub,2013-08-24 02:48:00,
2013-08-23 20:53:00,56.3,43.9,29.73,WSW,252,1.0,2.0,63,0.00,,,0.00,meteohub,2013-08-24 02:53:00,
2013-08-23 20:59:00,56.3,43.9,29.74,WSW,248,0.0,2.0,63,0.00,,,0.00,meteohub,2013-08-24 02:59:00,
2013-08-23 21:04:00,56.5,44.4,29.74,WSW,248,0.0,2.0,64,0.00,,,0.00,meteohub,2013-08-24 03:04:00,
2013-08-23 21:09:00,56.5,44.1,29.74,WSW,248,0.0,2.0,63,0.00,,,0.00,meteohub,2013-08-24 03:09:00,
2013-08-23 21:14:00,56.5,44.1,29.74,WSW,248,0.0,2.0,63,0.00,,,0.00,meteohub,2013-08-24 03:14:00,
2013-08-23 21:20:00,56.7,44.2,29.75,WSW,246,0.0,1.0,63,0.00,,,0.00,meteohub,2013-08-24 03:20:00,
2013-08-23 21:25:00,57.0,44.1,29.75,SE,138,2.0,2.0,62,0.00,,,0.00,meteohub,2013-08-24 03:25:00,
2013-08-23 21:30:00,57.2,44.2,29.75,SSW,208,0.0,2.0,62,0.00,,,0.00,meteohub,2013-08-24 03:30:00,
2013-08-23 21:36:00,56.8,44.4,29.75,SSW,212,0.0,2.0,63,0.00,,,0.00,meteohub,2013-08-24 03:36:00,
2013-08-23 21:41:00,56.5,44.4,29.75,SSW,212,0.0,2.0,64,0.00,,,0.00,meteohub,2013-08-24 03:41:00,
2013-08-23 21:46:00,56.1,44.1,29.75,SSW,212,0.0,1.0,64,0.00,,,0.00,meteohub,2013-08-24 03:46:00,
2013-08-23 21:51:00,55.8,43.7,29.75,SSW,200,0.0,1.0,64,0.00,,,0.00,meteohub,2013-08-24 03:51:00,
2013-08-23 21:57:00,55.6,44.4,29.76,SW,236,0.0,1.0,66,0.00,,,0.00,meteohub,2013-08-24 03:57:00,
2013-08-23 22:01:00,55.4,44.2,29.76,SW,231,0.0,1.0,66,0.00,,,0.00,meteohub,2013-08-24 04:01:00,
2013-08-23 22:02:00,55.2,44.1,29.76,WSW,251,1.0,1.0,66,0.00,,,0.00,meteohub,2013-08-24 04:02:00,
2013-08-23 22:03:00,55.0,43.5,29.76,West,260,2.0,2.0,65,0.00,,,0.00,meteohub,2013-08-24 04:03:00,
2013-08-23 22:08:00,54.5,43.3,29.76,WSW,249,2.0,2.0,66,0.00,,,0.00,meteohub,2013-08-24 04:08:00,
2013-08-23 22:14:00,54.0,43.3,29.76,WSW,249,2.0,2.0,67,0.00,,,0.00,meteohub,2013-08-24 04:14:00,
2013-08-23 22:19:00,53.6,43.3,29.76,WSW,246,1.0,2.0,68,0.00,,,0.00,meteohub,2013-08-24 04:19:00,
2013-08-23 22:24:00,53.2,43.0,29.76,West,266,1.0,3.0,68,0.00,,,0.00,meteohub,2013-08-24 04:24:00,
2013-08-23 22:29:00,52.9,43.0,29.76,West,266,0.0,3.0,69,0.00,,,0.00,meteohub,2013-08-24 04:29:00,
2013-08-23 22:35:00,52.5,43.0,29.76,West,262,1.0,3.0,70,0.00,,,0.00,meteohub,2013-08-24 04:35:00,
2013-08-23 22:40:00,52.2,42.6,29.76,West,262,0.0,2.0,70,0.00,,,0.00,meteohub,2013-08-24 04:40:00,
2013-08-23 22:45:00,51.8,42.6,29.77,WSW,258,2.0,2.0,71,0.00,,,0.00,meteohub,2013-08-24 04:45:00,
2013-08-23 22:51:00,51.6,42.4,29.77,WSW,250,1.0,2.0,71,0.00,,,0.00,meteohub,2013-08-24 04:51:00,
2013-08-23 22:56:00,51.4,42.4,29.77,West,267,2.0,2.0,71,0.00,,,0.00,meteohub,2013-08-24 04:56:00,
2013-08-23 23:01:00,51.3,42.6,29.77,West,262,1.0,2.0,72,0.00,,,0.00,meteohub,2013-08-24 05:01:00,
2013-08-23 23:06:00,50.9,42.3,29.78,WSW,252,2.0,2.0,72,0.00,,,0.00,meteohub,2013-08-24 05:06:00,
2013-08-23 23:12:00,50.7,42.1,29.78,WSW,243,1.0,2.0,72,0.00,,,0.00,meteohub,2013-08-24 05:12:00,
2013-08-23 23:17:00,50.9,42.3,29.78,WSW,248,1.0,2.0,72,0.00,,,0.00,meteohub,2013-08-24 05:17:00,
2013-08-23 23:22:00,51.3,43.0,29.78,WSW,255,2.0,2.0,73,0.00,,,0.00,meteohub,2013-08-24 05:22:00,
2013-08-23 23:27:00,51.6,43.3,29.78,WSW,238,1.0,2.0,73,0.00,,,0.00,meteohub,2013-08-24 05:27:00,
2013-08-23 23:32:00,52.0,43.2,29.79,WSW,245,1.0,2.0,72,0.00,,,0.00,meteohub,2013-08-24 05:32:00,
2013-08-23 23:37:00,52.0,43.2,29.78,WSW,250,1.0,2.0,72,0.00,,,0.00,meteohub,2013-08-24 05:37:00,
2013-08-23 23:42:00,51.8,42.6,29.78,WSW,240,2.0,2.0,71,0.00,,,0.00,meteohub,2013-08-24 05:42:00,
2013-08-23 23:47:00,51.6,42.4,29.79,WSW,250,1.0,2.0,71,0.00,,,0.00,meteohub,2013-08-24 05:47:00,
2013-08-23 23:52:00,51.8,42.6,29.79,West,277,2.0,3.0,71,0.00,,,0.00,meteohub,2013-08-24 05:52:00,
2013-08-23 23:57:00,51.4,41.9,29.79,West,259,0.0,3.0,70,0.00,,,0.00,meteohub,2013-08-24 05:57:00,